sensor_id;sensor_type;location;lat;lon;timestamp;pressure;altitude;pressure_sealevel;temperature;humidity
3917;BME280;1973;50.518;7.318;2023-05-21T00:00:20;100942.63;;;14.22;100.00
3917;BME280;1973;50.518;7.318;2023-05-21T00:02:47;100944.34;;;14.23;100.00
3917;BME280;1973;50.518;7.318;2023-05-21T00:05:14;100938.53;;;14.24;100.00
3917;BME280;1973;50.518;7.318;2023-05-21T00:07:42;100940.25;;;14.25;100.00
3917;BME280;1973;50.518;7.318;2023-05-21T00:10:09;100938.31;;;14.26;100.00
3917;BME280;1973;50.518;7.318;2023-05-21T00:12:36;100934.44;;;14.27;100.00
3917;BME280;1973;50.518;7.318;2023-05-21T00:15:03;100933.84;;;14.25;100.00
3917;BME280;1973;50.518;7.318;2023-05-21T00:17:29;100933.25;;;14.23;100.00
3917;BME280;1973;50.518;7.318;2023-05-21T00:19:56;100936.03;;;14.23;100.00
3917;BME280;1973;50.518;7.318;2023-05-21T00:22:22;100919.41;;;14.23;100.00
3917;BME280;1973;50.518;7.318;2023-05-21T00:24:49;100921.34;;;14.22;100.00
3917;BME280;1973;50.518;7.318;2023-05-21T00:27:16;100917.94;;;14.20;100.00
3917;BME280;1973;50.518;7.318;2023-05-21T00:29:42;100919.84;;;14.20;100.00
3917;BME280;1973;50.518;7.318;2023-05-21T00:32:09;100907.13;;;14.19;100.00
3917;BME280;1973;50.518;7.318;2023-05-21T00:34:36;100908.41;;;14.16;100.00
3917;BME280;1973;50.518;7.318;2023-05-21T00:37:03;100902.03;;;14.15;100.00
3917;BME280;1973;50.518;7.318;2023-05-21T00:39:30;100911.44;;;14.14;100.00
3917;BME280;1973;50.518;7.318;2023-05-21T00:41:56;100909.75;;;14.13;100.00
3917;BME280;1973;50.518;7.318;2023-05-21T00:44:23;100900.00;;;14.11;100.00
3917;BME280;1973;50.518;7.318;2023-05-21T00:46:51;100901.06;;;14.10;100.00
3917;BME280;1973;50.518;7.318;2023-05-21T00:49:22;100898.28;;;14.10;100.00
3917;BME280;1973;50.518;7.318;2023-05-21T00:51:49;100902.38;;;14.07;100.00
3917;BME280;1973;50.518;7.318;2023-05-21T00:54:17;100906.22;;;14.06;100.00
3917;BME280;1973;50.518;7.318;2023-05-21T00:56:44;100891.75;;;14.04;100.00
3917;BME280;1973;50.518;7.318;2023-05-21T00:59:12;100888.63;;;14.01;100.00
3917;BME280;1973;50.518;7.318;2023-05-21T01:01:42;100902.47;;;14.01;100.00
3917;BME280;1973;50.518;7.318;2023-05-21T01:04:11;100897.19;;;13.99;100.00
3917;BME280;1973;50.518;7.318;2023-05-21T01:06:37;100900.16;;;13.98;100.00
3917;BME280;1973;50.518;7.318;2023-05-21T01:09:04;100899.09;;;13.99;100.00
3917;BME280;1973;50.518;7.318;2023-05-21T01:11:41;100895.25;;;14.00;100.00
3917;BME280;1973;50.518;7.318;2023-05-21T01:14:09;100897.19;;;13.99;100.00
3917;BME280;1973;50.518;7.318;2023-05-21T01:16:40;100889.94;;;13.98;100.00
3917;BME280;1973;50.518;7.318;2023-05-21T01:19:09;100893.78;;;13.97;100.00
3917;BME280;1973;50.518;7.318;2023-05-21T01:21:41;100888.72;;;13.94;100.00
3917;BME280;1973;50.518;7.318;2023-05-21T01:26:53;100878.13;;;13.91;100.00
3917;BME280;1973;50.518;7.318;2023-05-21T01:29:20;100891.38;;;13.89;100.00
3917;BME280;1973;50.518;7.318;2023-05-21T01:32:15;100874.78;;;13.89;100.00
3917;BME280;1973;50.518;7.318;2023-05-21T01:37:26;100885.38;;;13.92;100.00
3917;BME280;1973;50.518;7.318;2023-05-21T01:39:59;100885.38;;;13.92;100.00
3917;BME280;1973;50.518;7.318;2023-05-21T01:42:30;100887.50;;;13.90;100.00
3917;BME280;1973;50.518;7.318;2023-05-21T01:44:58;100881.13;;;13.90;100.00
3917;BME280;1973;50.518;7.318;2023-05-21T01:47:28;100878.97;;;13.92;100.00
3917;BME280;1973;50.518;7.318;2023-05-21T01:49:57;100888.59;;;13.89;100.00
3917;BME280;1973;50.518;7.318;2023-05-21T01:52:24;100887.97;;;13.87;100.00
3917;BME280;1973;50.518;7.318;2023-05-21T01:54:51;100882.44;;;13.87;100.00
3917;BME280;1973;50.518;7.318;2023-05-21T01:57:20;100884.16;;;13.88;100.00
3917;BME280;1973;50.518;7.318;2023-05-21T01:59:46;100879.47;;;13.89;100.00
3917;BME280;1973;50.518;7.318;2023-05-21T02:02:13;100891.81;;;13.86;100.00
3917;BME280;1973;50.518;7.318;2023-05-21T02:04:39;100878.72;;;13.82;100.00
3917;BME280;1973;50.518;7.318;2023-05-21T02:07:06;100885.53;;;13.79;100.00
3917;BME280;1973;50.518;7.318;2023-05-21T02:09:33;100878.34;;;13.78;100.00
3917;BME280;1973;50.518;7.318;2023-05-21T02:11:59;100883.88;;;13.78;100.00
3917;BME280;1973;50.518;7.318;2023-05-21T02:14:26;100883.47;;;13.75;100.00
3917;BME280;1973;50.518;7.318;2023-05-21T02:16:52;100885.63;;;13.73;100.00
3917;BME280;1973;50.518;7.318;2023-05-21T02:19:19;100879.72;;;13.69;100.00
3917;BME280;1973;50.518;7.318;2023-05-21T02:21:46;100889.09;;;13.68;100.00
3917;BME280;1973;50.518;7.318;2023-05-21T02:24:12;100877.44;;;13.66;100.00
3917;BME280;1973;50.518;7.318;2023-05-21T02:26:39;100881.28;;;13.65;100.00
3917;BME280;1973;50.518;7.318;2023-05-21T02:29:06;100879.34;;;13.65;100.00
3917;BME280;1973;50.518;7.318;2023-05-21T02:31:32;100878.03;;;13.68;100.00
3917;BME280;1973;50.518;7.318;2023-05-21T02:33:59;100879.72;;;13.69;100.00
3917;BME280;1973;50.518;7.318;2023-05-21T02:36:26;100877.56;;;13.71;100.00
3917;BME280;1973;50.518;7.318;2023-05-21T02:38:54;100875.91;;;13.70;100.00
3917;BME280;1973;50.518;7.318;2023-05-21T02:41:23;100879.25;;;13.72;100.00
3917;BME280;1973;50.518;7.318;2023-05-21T02:43:49;100880.59;;;13.70;100.00
3917;BME280;1973;50.518;7.318;2023-05-21T02:46:16;100877.56;;;13.71;100.00
3917;BME280;1973;50.518;7.318;2023-05-21T02:48:42;100883.09;;;13.71;100.00
3917;BME280;1973;50.518;7.318;2023-05-21T02:51:09;100873.13;;;13.70;100.00
3917;BME280;1973;50.518;7.318;2023-05-21T02:53:35;100882.50;;;13.69;100.00
3917;BME280;1973;50.518;7.318;2023-05-21T02:56:02;100879.72;;;13.69;100.00
3917;BME280;1973;50.518;7.318;2023-05-21T02:58:29;100875.91;;;13.70;100.00
3917;BME280;1973;50.518;7.318;2023-05-21T03:00:56;100876.13;;;13.69;100.00
3917;BME280;1973;50.518;7.318;2023-05-21T03:03:22;100878.03;;;13.68;100.00
3917;BME280;1973;50.518;7.318;2023-05-21T03:05:49;100863.34;;;13.68;100.00
3917;BME280;1973;50.518;7.318;2023-05-21T03:08:15;100868.06;;;13.67;100.00
3917;BME280;1973;50.518;7.318;2023-05-21T03:10:42;100866.13;;;13.68;100.00
3917;BME280;1973;50.518;7.318;2023-05-21T03:13:08;100860.00;;;13.65;100.00
3917;BME280;1973;50.518;7.318;2023-05-21T03:15:35;100862.75;;;13.65;100.00
3917;BME280;1973;50.518;7.318;2023-05-21T03:18:04;100862.75;;;13.65;100.00
3917;BME280;1973;50.518;7.318;2023-05-21T03:20:30;100860.22;;;13.64;100.00
3917;BME280;1973;50.518;7.318;2023-05-21T03:22:57;100864.28;;;13.61;100.00
3917;BME280;1973;50.518;7.318;2023-05-21T03:25:25;100853.44;;;13.60;100.00
3917;BME280;1973;50.518;7.318;2023-05-21T03:27:52;100854.56;;;13.59;100.00
3917;BME280;1973;50.518;7.318;2023-05-21T03:30:18;100851.78;;;13.59;100.00
3917;BME280;1973;50.518;7.318;2023-05-21T03:32:45;100859.25;;;13.58;100.00
3917;BME280;1973;50.518;7.318;2023-05-21T03:35:12;100852.25;;;13.56;100.00
3917;BME280;1973;50.518;7.318;2023-05-21T03:37:39;100848.66;;;13.55;100.00
3917;BME280;1973;50.518;7.318;2023-05-21T03:40:06;100848.41;;;13.57;100.00
3917;BME280;1973;50.518;7.318;2023-05-21T03:42:33;100856.09;;;13.55;100.00
3917;BME280;1973;50.518;7.318;2023-05-21T03:44:59;100850.78;;;13.53;100.00
3917;BME280;1973;50.518;7.318;2023-05-21T03:47:26;100848.03;;;13.53;100.00
3917;BME280;1973;50.518;7.318;2023-05-21T03:49:52;100851.03;;;13.52;100.00
3917;BME280;1973;50.518;7.318;2023-05-21T03:52:19;100845.50;;;13.52;100.00
3917;BME280;1973;50.518;7.318;2023-05-21T03:54:45;100849.34;;;13.51;100.00
3917;BME280;1973;50.518;7.318;2023-05-21T03:57:12;100847.44;;;13.51;100.00
3917;BME280;1973;50.518;7.318;2023-05-21T03:59:38;100854.88;;;13.51;100.00
3917;BME280;1973;50.518;7.318;2023-05-21T04:02:05;100848.28;;;13.52;100.00
3917;BME280;1973;50.518;7.318;2023-05-21T04:04:31;100858.72;;;13.50;100.00
3917;BME280;1973;50.518;7.318;2023-05-21T04:06:59;100854.88;;;13.51;100.00
3917;BME280;1973;50.518;7.318;2023-05-21T04:09:26;100858.50;;;13.51;100.00
3917;BME280;1973;50.518;7.318;2023-05-21T04:11:54;100858.22;;;13.53;100.00
3917;BME280;1973;50.518;7.318;2023-05-21T04:14:21;100854.41;;;13.54;100.00
3917;BME280;1973;50.518;7.318;2023-05-21T04:16:48;100856.09;;;13.55;100.00
3917;BME280;1973;50.518;7.318;2023-05-21T04:19:15;100861.38;;;13.56;100.00
3917;BME280;1973;50.518;7.318;2023-05-21T04:21:41;100854.78;;;13.57;100.00
3917;BME280;1973;50.518;7.318;2023-05-21T04:24:10;100851.78;;;13.59;100.00
3917;BME280;1973;50.518;7.318;2023-05-21T04:26:36;100856.47;;;13.58;100.00
3917;BME280;1973;50.518;7.318;2023-05-21T04:29:03;100866.22;;;13.61;100.00
3917;BME280;1973;50.518;7.318;2023-05-21T04:31:30;100872.00;;;13.59;100.00
3917;BME280;1973;50.518;7.318;2023-05-21T04:33:57;100856.84;;;13.62;100.00
3917;BME280;1973;50.518;7.318;2023-05-21T04:36:24;100857.44;;;13.64;100.00
3917;BME280;1973;50.518;7.318;2023-05-21T04:38:54;100866.38;;;13.66;100.00
3917;BME280;1973;50.518;7.318;2023-05-21T04:41:21;100868.66;;;13.69;100.00
3917;BME280;1973;50.518;7.318;2023-05-21T04:43:47;100870.34;;;13.70;100.00
3917;BME280;1973;50.518;7.318;2023-05-21T04:46:14;100871.22;;;13.71;100.00
3917;BME280;1973;50.518;7.318;2023-05-21T04:48:40;100868.19;;;13.72;100.00
3917;BME280;1973;50.518;7.318;2023-05-21T04:51:07;100863.28;;;13.74;100.00
3917;BME280;1973;50.518;7.318;2023-05-21T04:53:34;100872.41;;;13.75;100.00
3917;BME280;1973;50.518;7.318;2023-05-21T04:56:01;100870.25;;;13.77;100.00
3917;BME280;1973;50.518;7.318;2023-05-21T04:58:28;100872.81;;;13.78;100.00
3917;BME280;1973;50.518;7.318;2023-05-21T05:00:54;100875.31;;;13.80;100.00
3917;BME280;1973;50.518;7.318;2023-05-21T05:03:21;100875.09;;;13.81;100.00
3917;BME280;1973;50.518;7.318;2023-05-21T05:05:47;100876.75;;;13.82;100.00
3917;BME280;1973;50.518;7.318;2023-05-21T05:08:14;100882.06;;;13.84;100.00
3917;BME280;1973;50.518;7.318;2023-05-21T05:10:41;100882.44;;;13.87;100.00
3917;BME280;1973;50.518;7.318;2023-05-21T05:13:08;100876.91;;;13.87;100.00
3917;BME280;1973;50.518;7.318;2023-05-21T05:15:35;100871.28;;;13.94;100.00
3917;BME280;1973;50.518;7.318;2023-05-21T05:18:02;100866.72;;;13.99;100.00
3917;BME280;1973;50.518;7.318;2023-05-21T05:20:28;100869.03;;;14.02;100.00
3917;BME280;1973;50.518;7.318;2023-05-21T05:22:55;100862.53;;;14.08;100.00
3917;BME280;1973;50.518;7.318;2023-05-21T05:25:21;100869.91;;;14.14;100.00
3917;BME280;1973;50.518;7.318;2023-05-21T05:27:48;100865.31;;;14.20;100.00
3917;BME280;1973;50.518;7.318;2023-05-21T05:30:15;100861.63;;;14.26;100.00
3917;BME280;1973;50.518;7.318;2023-05-21T05:32:42;100863.44;;;14.32;100.00
3917;BME280;1973;50.518;7.318;2023-05-21T05:35:08;100865.03;;;14.40;100.00
3917;BME280;1973;50.518;7.318;2023-05-21T05:37:35;100864.06;;;14.46;100.00
3917;BME280;1973;50.518;7.318;2023-05-21T05:40:02;100865.41;;;14.55;100.00
3917;BME280;1973;50.518;7.318;2023-05-21T05:42:29;100866.13;;;14.62;100.00
3917;BME280;1973;50.518;7.318;2023-05-21T05:44:56;100861.31;;;14.69;100.00
3917;BME280;1973;50.518;7.318;2023-05-21T05:47:23;100867.34;;;14.78;100.00
3917;BME280;1973;50.518;7.318;2023-05-21T05:49:49;100864.44;;;14.84;100.00
3917;BME280;1973;50.518;7.318;2023-05-21T05:52:16;100874.31;;;14.92;100.00
3917;BME280;1973;50.518;7.318;2023-05-21T05:54:43;100862.75;;;14.95;100.00
3917;BME280;1973;50.518;7.318;2023-05-21T05:57:09;100863.94;;;14.99;100.00
3917;BME280;1973;50.518;7.318;2023-05-21T05:59:36;100863.22;;;15.03;100.00
3917;BME280;1973;50.518;7.318;2023-05-21T06:02:02;100868.88;;;15.08;100.00
3917;BME280;1973;50.518;7.318;2023-05-21T06:04:29;100863.69;;;15.12;100.00
3917;BME280;1973;50.518;7.318;2023-05-21T06:06:56;100866.56;;;15.17;100.00
3917;BME280;1973;50.518;7.318;2023-05-21T06:09:29;100861.38;;;15.21;100.00
3917;BME280;1973;50.518;7.318;2023-05-21T06:11:55;100853.19;;;15.26;100.00
3917;BME280;1973;50.518;7.318;2023-05-21T06:14:22;100864.13;;;15.32;100.00
3917;BME280;1973;50.518;7.318;2023-05-21T06:16:48;100865.69;;;15.40;100.00
3917;BME280;1973;50.518;7.318;2023-05-21T06:19:15;100867.97;;;15.43;100.00
3917;BME280;1973;50.518;7.318;2023-05-21T06:21:41;100864.00;;;15.50;100.00
3917;BME280;1973;50.518;7.318;2023-05-21T06:24:08;100859.63;;;15.54;100.00
3917;BME280;1973;50.518;7.318;2023-05-21T06:26:34;100855.50;;;15.57;100.00
3917;BME280;1973;50.518;7.318;2023-05-21T06:29:01;100849.09;;;15.56;100.00
3917;BME280;1973;50.518;7.318;2023-05-21T06:31:29;100846.94;;;15.58;100.00
3917;BME280;1973;50.518;7.318;2023-05-21T06:33:58;100846.09;;;15.58;100.00
3917;BME280;1973;50.518;7.318;2023-05-21T06:36:26;100851.88;;;15.56;100.00
3917;BME280;1973;50.518;7.318;2023-05-21T06:38:55;100836.34;;;15.55;100.00
3917;BME280;1973;50.518;7.318;2023-05-21T06:41:22;100849.72;;;15.47;100.00
3917;BME280;1973;50.518;7.318;2023-05-21T06:43:49;100848.75;;;15.53;100.00
3917;BME280;1973;50.518;7.318;2023-05-21T06:46:15;100848.25;;;15.56;100.00
3917;BME280;1973;50.518;7.318;2023-05-21T06:48:42;100851.03;;;15.56;100.00
3917;BME280;1973;50.518;7.318;2023-05-21T06:51:09;100847.78;;;15.59;100.00
3917;BME280;1973;50.518;7.318;2023-05-21T06:53:35;100848.25;;;15.56;100.00
3917;BME280;1973;50.518;7.318;2023-05-21T06:56:02;100852.72;;;15.57;100.00
3917;BME280;1973;50.518;7.318;2023-05-21T06:58:28;100853.94;;;15.61;100.00
3917;BME280;1973;50.518;7.318;2023-05-21T07:00:57;100864.28;;;15.66;100.00
3917;BME280;1973;50.518;7.318;2023-05-21T07:03:24;100848.56;;;15.71;100.00
3917;BME280;1973;50.518;7.318;2023-05-21T07:05:51;100855.91;;;15.77;100.00
3917;BME280;1973;50.518;7.318;2023-05-21T07:08:18;100853.22;;;15.82;100.00
3917;BME280;1973;50.518;7.318;2023-05-21T07:10:48;100850.56;;;15.87;100.00
3917;BME280;1973;50.518;7.318;2023-05-21T07:13:15;100848.69;;;15.93;100.00
3917;BME280;1973;50.518;7.318;2023-05-21T07:15:41;100849.41;;;16.00;100.00
3917;BME280;1973;50.518;7.318;2023-05-21T07:18:08;100848.75;;;16.10;100.00
3917;BME280;1973;50.518;7.318;2023-05-21T07:20:35;100844.28;;;16.08;100.00
3917;BME280;1973;50.518;7.318;2023-05-21T07:23:01;100851.63;;;16.15;100.00
3917;BME280;1973;50.518;7.318;2023-05-21T07:25:28;100846.13;;;16.20;100.00
3917;BME280;1973;50.518;7.318;2023-05-21T07:27:54;100851.28;;;16.28;100.00
3917;BME280;1973;50.518;7.318;2023-05-21T07:30:21;100856.44;;;16.36;100.00
3917;BME280;1973;50.518;7.318;2023-05-21T07:32:47;100859.88;;;16.43;100.00
3917;BME280;1973;50.518;7.318;2023-05-21T07:35:14;100853.91;;;16.51;100.00
3917;BME280;1973;50.518;7.318;2023-05-21T07:37:40;100845.41;;;16.58;100.00
3917;BME280;1973;50.518;7.318;2023-05-21T07:40:07;100850.78;;;16.64;100.00
3917;BME280;1973;50.518;7.318;2023-05-21T07:42:34;100844.91;;;16.77;100.00
3917;BME280;1973;50.518;7.318;2023-05-21T07:45:00;100844.72;;;16.84;100.00
3917;BME280;1973;50.518;7.318;2023-05-21T07:47:27;100847.28;;;16.90;100.00
3917;BME280;1973;50.518;7.318;2023-05-21T07:49:54;100846.25;;;16.96;100.00
3917;BME280;1973;50.518;7.318;2023-05-21T07:52:20;100841.63;;;17.02;100.00
3917;BME280;1973;50.518;7.318;2023-05-21T07:54:47;100847.31;;;17.12;100.00
3917;BME280;1973;50.518;7.318;2023-05-21T07:57:13;100836.84;;;17.19;100.00
3917;BME280;1973;50.518;7.318;2023-05-21T07:59:40;100837.97;;;17.18;100.00
3917;BME280;1973;50.518;7.318;2023-05-21T08:02:06;100837.50;;;17.26;100.00
3917;BME280;1973;50.518;7.318;2023-05-21T08:04:33;100833.09;;;17.30;100.00
3917;BME280;1973;50.518;7.318;2023-05-21T08:06:59;100834.91;;;17.41;100.00
3917;BME280;1973;50.518;7.318;2023-05-21T08:09:26;100816.34;;;17.47;100.00
3917;BME280;1973;50.518;7.318;2023-05-21T08:11:52;100832.56;;;17.55;100.00
3917;BME280;1973;50.518;7.318;2023-05-21T08:14:19;100824.22;;;17.55;100.00
3917;BME280;1973;50.518;7.318;2023-05-21T08:16:45;100827.06;;;17.60;100.00
3917;BME280;1973;50.518;7.318;2023-05-21T08:19:12;100829.63;;;17.62;100.00
3917;BME280;1973;50.518;7.318;2023-05-21T08:21:38;100826.63;;;17.68;100.00
3917;BME280;1973;50.518;7.318;2023-05-21T08:24:05;100825.25;;;17.71;100.00
3917;BME280;1973;50.518;7.318;2023-05-21T08:26:32;100822.78;;;17.74;100.00
3917;BME280;1973;50.518;7.318;2023-05-21T08:28:59;100818.44;;;17.83;100.00
3917;BME280;1973;50.518;7.318;2023-05-21T08:31:25;100819.59;;;17.87;100.00
3917;BME280;1973;50.518;7.318;2023-05-21T08:33:53;100818.81;;;17.92;100.00
3917;BME280;1973;50.518;7.318;2023-05-21T08:36:21;100815.72;;;17.93;100.00
3917;BME280;1973;50.518;7.318;2023-05-21T08:38:48;100818.06;;;18.02;100.00
3917;BME280;1973;50.518;7.318;2023-05-21T08:41:15;100815.34;;;18.12;100.00
3917;BME280;1973;50.518;7.318;2023-05-21T08:43:42;100816.56;;;18.21;100.00
3917;BME280;1973;50.518;7.318;2023-05-21T08:46:15;100811.59;;;18.28;100.00
3917;BME280;1973;50.518;7.318;2023-05-21T08:48:45;100806.63;;;18.35;100.00
3917;BME280;1973;50.518;7.318;2023-05-21T08:51:12;100807.00;;;18.43;100.00
3917;BME280;1973;50.518;7.318;2023-05-21T08:53:38;100802.06;;;18.56;100.00
3917;BME280;1973;50.518;7.318;2023-05-21T08:56:05;100803.03;;;18.71;100.00
3917;BME280;1973;50.518;7.318;2023-05-21T08:58:32;100800.88;;;18.88;100.00
3917;BME280;1973;50.518;7.318;2023-05-21T09:00:59;100802.66;;;19.05;100.00
3917;BME280;1973;50.518;7.318;2023-05-21T09:03:26;100805.25;;;19.21;100.00
3917;BME280;1973;50.518;7.318;2023-05-21T09:05:54;100791.88;;;19.33;100.00
3917;BME280;1973;50.518;7.318;2023-05-21T09:08:26;100787.78;;;19.46;100.00
3917;BME280;1973;50.518;7.318;2023-05-21T09:10:54;100798.72;;;19.58;100.00
3917;BME280;1973;50.518;7.318;2023-05-21T09:13:23;100785.88;;;19.62;100.00
3917;BME280;1973;50.518;7.318;2023-05-21T09:15:50;100788.94;;;19.70;100.00
3917;BME280;1973;50.518;7.318;2023-05-21T09:18:17;100782.81;;;19.73;100.00
3917;BME280;1973;50.518;7.318;2023-05-21T09:20:43;100778.94;;;19.79;100.00
3917;BME280;1973;50.518;7.318;2023-05-21T09:23:11;100778.94;;;19.89;100.00
3917;BME280;1973;50.518;7.318;2023-05-21T09:25:46;100777.28;;;19.99;100.00
3917;BME280;1973;50.518;7.318;2023-05-21T09:28:14;100769.72;;;20.04;100.00
3917;BME280;1973;50.518;7.318;2023-05-21T09:30:48;100773.91;;;20.07;100.00
3917;BME280;1973;50.518;7.318;2023-05-21T09:33:27;100768.59;;;20.10;100.00
3917;BME280;1973;50.518;7.318;2023-05-21T09:35:56;100762.19;;;20.10;100.00
3917;BME280;1973;50.518;7.318;2023-05-21T09:38:24;100768.03;;;20.18;100.00
3917;BME280;1973;50.518;7.318;2023-05-21T09:40:53;100770.03;;;20.28;100.00
3917;BME280;1973;50.518;7.318;2023-05-21T09:43:21;100776.75;;;20.32;100.00
3917;BME280;1973;50.518;7.318;2023-05-21T09:45:51;100759.97;;;20.32;100.00
3917;BME280;1973;50.518;7.318;2023-05-21T09:48:54;100753.81;;;20.35;100.00
3917;BME280;1973;50.518;7.318;2023-05-21T09:51:21;100756.59;;;20.50;100.00
3917;BME280;1973;50.518;7.318;2023-05-21T09:56:23;100750.16;;;20.50;100.00
3917;BME280;1973;50.518;7.318;2023-05-21T09:58:51;100743.13;;;20.62;100.00
3917;BME280;1973;50.518;7.318;2023-05-21T10:01:20;100747.03;;;20.71;100.00
3917;BME280;1973;50.518;7.318;2023-05-21T10:03:49;100738.31;;;20.83;100.00
3917;BME280;1973;50.518;7.318;2023-05-21T10:06:19;100735.72;;;20.97;100.00
3917;BME280;1973;50.518;7.318;2023-05-21T10:08:47;100732.88;;;21.07;100.00
3917;BME280;1973;50.518;7.318;2023-05-21T10:11:18;100730.03;;;21.22;100.00
3917;BME280;1973;50.518;7.318;2023-05-21T10:13:47;100725.22;;;21.38;100.00
3917;BME280;1973;50.518;7.318;2023-05-21T10:16:18;100722.03;;;21.54;100.00
3917;BME280;1973;50.518;7.318;2023-05-21T10:18:45;100718.84;;;21.66;100.00
3917;BME280;1973;50.518;7.318;2023-05-21T10:21:12;100721.25;;;21.88;100.00
3917;BME280;1973;50.518;7.318;2023-05-21T10:23:40;100705.50;;;21.92;100.00
3917;BME280;1973;50.518;7.318;2023-05-21T10:26:08;100715.22;;;22.04;100.00
3917;BME280;1973;50.518;7.318;2023-05-21T10:28:35;100708.69;;;22.14;100.00
3917;BME280;1973;50.518;7.318;2023-05-21T10:31:03;100694.34;;;22.20;100.00
3917;BME280;1973;50.518;7.318;2023-05-21T10:33:30;100699.28;;;22.28;100.00
3917;BME280;1973;50.518;7.318;2023-05-21T10:35:57;100685.44;;;22.37;100.00
3917;BME280;1973;50.518;7.318;2023-05-21T10:38:26;100687.84;;;22.49;100.00
3917;BME280;1973;50.518;7.318;2023-05-21T10:40:53;100686.22;;;22.71;100.00
3917;BME280;1973;50.518;7.318;2023-05-21T10:49:06;100674.31;;;23.22;100.00
3917;BME280;1973;50.518;7.318;2023-05-21T11:00:17;100653.31;;;23.57;100.00
3917;BME280;1973;50.518;7.318;2023-05-21T11:02:47;100660.81;;;23.61;99.01
3917;BME280;1973;50.518;7.318;2023-05-21T11:05:14;100656.41;;;23.74;97.57
3917;BME280;1973;50.518;7.318;2023-05-21T11:07:56;100657.16;;;23.80;93.65
3917;BME280;1973;50.518;7.318;2023-05-21T11:16:01;100635.22;;;23.95;88.99
3917;BME280;1973;50.518;7.318;2023-05-21T11:21:08;100634.81;;;24.34;91.34
3917;BME280;1973;50.518;7.318;2023-05-21T11:23:52;100624.69;;;24.47;83.97
3917;BME280;1973;50.518;7.318;2023-05-21T11:26:24;100631.88;;;24.66;86.19
3917;BME280;1973;50.518;7.318;2023-05-21T11:31:31;100622.63;;;24.93;83.24
3917;BME280;1973;50.518;7.318;2023-05-21T11:34:20;100616.25;;;25.01;81.48
3917;BME280;1973;50.518;7.318;2023-05-21T11:39:41;100629.16;;;25.16;78.36
3917;BME280;1973;50.518;7.318;2023-05-21T11:42:08;100612.63;;;25.23;77.86
3917;BME280;1973;50.518;7.318;2023-05-21T11:44:38;100609.28;;;25.21;76.28
3917;BME280;1973;50.518;7.318;2023-05-21T11:47:06;100597.09;;;25.12;77.56
3917;BME280;1973;50.518;7.318;2023-05-21T11:49:33;100607.94;;;25.18;77.28
3917;BME280;1973;50.518;7.318;2023-05-21T11:52:01;100610.91;;;25.36;77.26
3917;BME280;1973;50.518;7.318;2023-05-21T11:54:29;100610.06;;;25.35;74.22
3917;BME280;1973;50.518;7.318;2023-05-21T11:57:05;100600.00;;;25.43;72.25
3917;BME280;1973;50.518;7.318;2023-05-21T11:59:33;100609.19;;;25.48;73.15
3917;BME280;1973;50.518;7.318;2023-05-21T12:02:00;100603.97;;;25.55;73.16
3917;BME280;1973;50.518;7.318;2023-05-21T12:04:31;100600.97;;;25.52;71.21
3917;BME280;1973;50.518;7.318;2023-05-21T12:07:05;100599.84;;;25.61;70.40
3917;BME280;1973;50.518;7.318;2023-05-21T12:12:07;100600.84;;;25.43;72.17
3917;BME280;1973;50.518;7.318;2023-05-21T12:14:35;100590.41;;;25.44;72.09
3917;BME280;1973;50.518;7.318;2023-05-21T12:17:02;100599.13;;;25.34;72.11
3917;BME280;1973;50.518;7.318;2023-05-21T12:19:33;100612.00;;;25.26;70.07
3917;BME280;1973;50.518;7.318;2023-05-21T12:22:04;100620.16;;;25.14;72.23
3917;BME280;1973;50.518;7.318;2023-05-21T12:24:31;100612.44;;;25.06;71.63
3917;BME280;1973;50.518;7.318;2023-05-21T12:27:02;100615.47;;;25.09;71.99
3917;BME280;1973;50.518;7.318;2023-05-21T12:29:30;100612.09;;;25.21;73.02
3917;BME280;1973;50.518;7.318;2023-05-21T12:32:01;100611.16;;;25.26;71.58
3917;BME280;1973;50.518;7.318;2023-05-21T12:37:06;100599.47;;;25.54;70.60
3917;BME280;1973;50.518;7.318;2023-05-21T12:39:37;100598.44;;;25.73;69.51
3917;BME280;1973;50.518;7.318;2023-05-21T12:42:05;100604.78;;;25.78;69.50
3917;BME280;1973;50.518;7.318;2023-05-21T12:44:32;100594.53;;;25.82;67.92
3917;BME280;1973;50.518;7.318;2023-05-21T12:47:02;100599.22;;;25.87;67.43
3917;BME280;1973;50.518;7.318;2023-05-21T12:49:37;100596.53;;;25.82;67.39
3917;BME280;1973;50.518;7.318;2023-05-21T12:52:07;100584.72;;;25.80;66.78
3917;BME280;1973;50.518;7.318;2023-05-21T12:54:36;100589.47;;;25.71;66.17
3917;BME280;1973;50.518;7.318;2023-05-21T12:57:07;100601.22;;;25.64;66.97
3917;BME280;1973;50.518;7.318;2023-05-21T13:00:03;100589.09;;;25.63;65.55
3917;BME280;1973;50.518;7.318;2023-05-21T13:02:38;100578.66;;;25.64;67.45
3917;BME280;1973;50.518;7.318;2023-05-21T13:05:09;100584.09;;;25.60;68.29
3917;BME280;1973;50.518;7.318;2023-05-21T13:07:38;100588.19;;;25.77;68.33
3917;BME280;1973;50.518;7.318;2023-05-21T13:10:05;100587.53;;;25.80;67.13
3917;BME280;1973;50.518;7.318;2023-05-21T13:12:32;100587.47;;;25.93;66.49
3917;BME280;1973;50.518;7.318;2023-05-21T13:15:01;100571.09;;;26.04;64.96
3917;BME280;1973;50.518;7.318;2023-05-21T13:17:28;100582.38;;;26.04;63.67
3917;BME280;1973;50.518;7.318;2023-05-21T13:22:35;100575.69;;;26.22;63.16
3917;BME280;1973;50.518;7.318;2023-05-21T13:25:02;100581.34;;;26.22;62.46
3917;BME280;1973;50.518;7.318;2023-05-21T13:27:28;100567.09;;;26.36;62.06
3917;BME280;1973;50.518;7.318;2023-05-21T13:29:55;100569.00;;;26.57;61.01
3917;BME280;1973;50.518;7.318;2023-05-21T13:32:21;100565.44;;;26.83;60.84
3917;BME280;1973;50.518;7.318;2023-05-21T13:34:48;100564.28;;;26.92;59.81
3917;BME280;1973;50.518;7.318;2023-05-21T13:37:14;100562.44;;;26.88;60.34
3917;BME280;1973;50.518;7.318;2023-05-21T13:39:41;100566.25;;;26.83;60.14
3917;BME280;1973;50.518;7.318;2023-05-21T13:42:07;100563.78;;;26.90;60.07
3917;BME280;1973;50.518;7.318;2023-05-21T13:44:34;100559.31;;;26.89;59.53
3917;BME280;1973;50.518;7.318;2023-05-21T13:47:02;100555.63;;;26.89;59.64
3917;BME280;1973;50.518;7.318;2023-05-21T13:49:29;100557.94;;;26.87;59.68